This is the latest recevied weather packets stored in our database for station/object K1WJY. If no packets are shown the sender has not sent any weather packets the latest 10 day(s).
| Time | Temp. | Humidity | Pressure | Rain* | Wind** | Luminosity | Snow |
|---|---|---|---|---|---|---|---|
| 1777129922 | 10.56° C | 60% | 1019.3 hPa | 0 mm | - | 371 W/m² | - |
| 1777129617 | 11.67° C | 58% | 1019 hPa | 0 mm | - | 340 W/m² | - |
| 1777129316 | 10.56° C | 59% | 1019.2 hPa | 0 mm | - | 321 W/m² | - |
| 1777129012 | 11.11° C | 59% | 1019.3 hPa | 0 mm | - | 382 W/m² | - |
| 1777128708 | 10.56° C | 60% | 1019 hPa | 0 mm | - | 296 W/m² | - |
| 1777128406 | 10.56° C | 60% | 1019.3 hPa | 0 mm | - | 358 W/m² | - |
| 1777128103 | 10.56° C | 60% | 1019.3 hPa | 0 mm | - | 541 W/m² | - |
| 1777127801 | 10.56° C | 61% | 1019.4 hPa | 0 mm | - | 301 W/m² | - |
| 1777127498 | 11.11° C | 60% | 1019.2 hPa | 0 mm | - | 342 W/m² | - |
| 1777127193 | 11.67° C | 57% | 1019.3 hPa | 0 mm | - | 403 W/m² | - |
| 1777126890 | 12.22° C | 58% | 1019.3 hPa | 0 mm | - | 399 W/m² | - |
| 1777126586 | 11.67° C | 58% | 1019.2 hPa | 0 mm | - | 960 W/m² | - |
| 1777126282 | 10° C | 61% | 1019.3 hPa | 0 mm | - | 929 W/m² | - |
| 1777125978 | 10° C | 63% | 1019.2 hPa | 0 mm | - | 246 W/m² | - |
| 1777125675 | 9.44° C | 64% | 1019.4 hPa | 0 mm | - | 213 W/m² | - |
| 1777125371 | 10° C | 64% | 1019.5 hPa | 0 mm | - | 209 W/m² | - |
| 1777125066 | 10.56° C | 62% | 1019.4 hPa | 0 mm | - | 253 W/m² | - |
| 1777124761 | 10.56° C | 62% | 1019.3 hPa | 0 mm | - | 760 W/m² | - |
| 1777124457 | 10.56° C | 63% | 1019.4 hPa | 0 mm | - | 713 W/m² | - |
| 1777124154 | 10° C | 64% | 1019.6 hPa | 0 mm | - | 707 W/m² | - |
| 1777123851 | 10° C | 64% | 1019.5 hPa | 0 mm | - | 586 W/m² | - |
| 1777123547 | 10° C | 66% | 1019.8 hPa | 0 mm | - | 658 W/m² | - |
| 1777123244 | 10° C | 65% | 1019.9 hPa | 0 mm | - | 632 W/m² | - |
| 1777122939 | 9.44° C | 66% | 1019.9 hPa | 0 mm | - | 604 W/m² | - |
| 1777122636 | 8.89° C | 67% | 1019.9 hPa | 0 mm | - | 590 W/m² | - |
* Rain latest hour (hover to see other rain measurements)
** Current wind speed in m/s (hover to see current wind gust speed)